KJAS/JAS METAR and TAF weather

Enter ICAO airport designator
Station Type Date Time Source
KJAS METAR 2020/06/02 16:15 UTC NOAA

KJAS 021615Z AUTO 00000KT 10SM CLR 29/21 A3012 RMK AO2 T02890211


Station Type Date Time Source
KJAS Decoded METAR 2020/06/02 16:15 UTC NOAA

Jasper, Jasper County-Bell Field Airport, TX, United States (KJAS) 30-53-08N 094-02-05W
Jun 02, 2020 - 12:15 PM EDT / 2020.06.02 1615 UTC
Wind: Calm:0
Visibility: 10 mile(s):0
Sky conditions: clear
Temperature: 84.0 F (28.9 C)
Dew Point: 70.0 F (21.1 C)
Relative Humidity: 62%
Pressure (altimeter): 30.12 in. Hg (1019 hPa)
ob: KJAS 021615Z AUTO 00000KT 10SM CLR 29/21 A3012 RMK AO2 T02890211
cycle: 16

Station Type Date Time Source
KJAS TAF UTC NOAA

Error!

Example: see airport list